createdAt,value
2023-07-18T00:00:42.401Z,64.94
2023-07-18T00:01:42.385Z,66.26
2023-07-18T00:02:42.448Z,65.93
2023-07-18T00:03:42.446Z,62.72
2023-07-18T00:04:42.329Z,60.56
2023-07-18T00:05:42.748Z,61.11
2023-07-18T00:06:42.318Z,59.52
2023-07-18T00:07:42.337Z,59.97
2023-07-18T00:08:42.304Z,60.02
2023-07-18T00:09:42.319Z,61.23
2023-07-18T00:10:42.306Z,64.69
2023-07-18T00:11:42.281Z,66.92
2023-07-18T00:12:42.274Z,65.02
2023-07-18T00:13:42.299Z,67.72
2023-07-18T00:14:42.296Z,68.52
2023-07-18T00:15:42.285Z,69.26
2023-07-18T00:16:42.290Z,70.08
2023-07-18T00:17:42.341Z,67.74
2023-07-18T00:18:42.343Z,66.42
2023-07-18T00:19:42.362Z,64.43
2023-07-18T00:20:42.367Z,61.07
2023-07-18T00:21:42.398Z,53.11
2023-07-18T00:22:42.446Z,54.56
2023-07-18T00:23:42.446Z,52.73
2023-07-18T00:24:42.445Z,51.20
2023-07-18T00:25:42.531Z,54.70
2023-07-18T00:26:42.496Z,52.31
2023-07-18T00:27:42.503Z,51.18
2023-07-18T00:28:42.519Z,52.68
2023-07-18T00:29:42.557Z,57.69
2023-07-18T00:30:42.568Z,57.15
2023-07-18T00:31:42.626Z,53.62
2023-07-18T00:32:42.699Z,55.64
2023-07-18T00:33:42.667Z,57.75
2023-07-18T00:34:42.637Z,58.51
2023-07-18T00:35:42.628Z,57.10
2023-07-18T00:36:42.664Z,57.22
2023-07-18T00:37:42.668Z,59.94
2023-07-18T00:38:42.705Z,58.00
2023-07-18T00:39:42.727Z,62.37
2023-07-18T00:40:42.741Z,65.96
2023-07-18T00:41:42.767Z,67.89
2023-07-18T00:42:42.785Z,71.08
2023-07-18T00:43:42.770Z,70.39
2023-07-18T00:44:42.813Z,72.97
2023-07-18T00:45:42.847Z,73.06
2023-07-18T00:46:42.922Z,71.68
2023-07-18T00:47:42.944Z,71.42
2023-07-18T00:48:42.892Z,70.30
2023-07-18T00:49:42.914Z,72.17
2023-07-18T00:50:42.977Z,74.26
2023-07-18T00:51:42.953Z,72.31
2023-07-18T00:52:42.985Z,74.74
2023-07-18T00:53:43.161Z,73.12
2023-07-18T00:54:43.084Z,72.25
2023-07-18T00:55:43.047Z,71.95
2023-07-18T00:56:43.089Z,74.88
2023-07-18T00:57:43.093Z,76.39
2023-07-18T00:58:43.099Z,79.01
2023-07-18T00:59:43.125Z,75.53
2023-07-18T01:00:43.119Z,72.06
2023-07-18T01:01:43.180Z,68.99
2023-07-18T01:02:43.271Z,68.21
2023-07-18T01:03:43.233Z,66.52
2023-07-18T01:04:43.201Z,64.71
2023-07-18T01:05:43.238Z,60.37
2023-07-18T01:06:43.258Z,60.51
2023-07-18T01:07:43.255Z,59.06
2023-07-18T01:08:43.265Z,58.29
2023-07-18T01:09:43.286Z,55.55
2023-07-18T01:10:43.304Z,54.62
2023-07-18T01:11:43.339Z,54.16
2023-07-18T01:12:43.351Z,52.64
2023-07-18T01:13:43.373Z,48.40
2023-07-18T01:14:43.384Z,43.67
2023-07-18T01:15:43.440Z,40.72
2023-07-18T01:16:43.422Z,38.10
2023-07-18T01:17:43.459Z,38.88
2023-07-18T01:18:43.473Z,41.87
2023-07-18T01:19:43.478Z,47.06
2023-07-18T01:20:43.506Z,44.51
2023-07-18T01:21:43.518Z,46.36
2023-07-18T01:22:43.584Z,52.31
2023-07-18T01:23:43.556Z,51.32
2023-07-18T01:24:43.583Z,54.16
2023-07-18T01:25:43.625Z,57.83
2023-07-18T01:26:43.630Z,62.07
2023-07-18T01:27:43.644Z,64.19
2023-07-18T01:28:43.651Z,62.94
2023-07-18T01:29:43.719Z,62.42
2023-07-18T01:30:43.702Z,60.52
2023-07-18T01:31:43.815Z,62.90
2023-07-18T01:32:43.787Z,61.47
2023-07-18T01:33:43.791Z,64.90
2023-07-18T01:34:43.827Z,66.14
2023-07-18T01:35:43.844Z,64.91
2023-07-18T01:36:43.849Z,58.50
2023-07-18T01:37:43.845Z,58.99
2023-07-18T01:38:43.903Z,56.93
2023-07-18T01:39:43.903Z,59.10
2023-07-18T01:40:43.934Z,56.56
2023-07-18T01:41:43.941Z,55.20
2023-07-18T01:42:43.982Z,55.57
2023-07-18T01:43:43.989Z,55.00
2023-07-18T01:44:44.056Z,55.40
2023-07-18T01:45:44.038Z,51.69
2023-07-18T01:46:44.107Z,50.59
2023-07-18T01:47:44.131Z,49.81
2023-07-18T01:48:44.112Z,51.69
2023-07-18T01:49:44.149Z,54.40
2023-07-18T01:50:44.181Z,54.20
2023-07-18T01:51:44.175Z,57.89
2023-07-18T01:52:44.185Z,59.87
2023-07-18T01:53:44.227Z,58.76
2023-07-18T01:54:44.348Z,62.34
2023-07-18T01:55:44.243Z,64.04
2023-07-18T01:56:44.276Z,61.50
2023-07-18T01:57:44.311Z,61.18
2023-07-18T01:58:44.325Z,62.16
2023-07-18T01:59:44.366Z,66.04
2023-07-18T02:00:44.417Z,62.43
2023-07-18T02:01:44.391Z,62.26
2023-07-18T02:02:44.527Z,56.97
2023-07-18T02:03:44.453Z,55.94
2023-07-18T02:04:44.516Z,51.76
2023-07-18T02:05:44.515Z,51.11
2023-07-18T02:06:44.552Z,43.44
2023-07-18T02:07:44.602Z,41.59
2023-07-18T02:08:44.607Z,36.27
2023-07-18T02:09:44.620Z,33.77
2023-07-18T02:10:44.633Z,27.58
2023-07-18T02:11:44.663Z,24.81
2023-07-18T02:12:44.716Z,26.09
2023-07-18T02:13:44.758Z,25.00
2023-07-18T02:14:44.766Z,27.26
2023-07-18T02:15:44.776Z,25.05
2023-07-18T02:16:44.857Z,26.57
2023-07-18T02:17:45.047Z,25.48
2023-07-18T02:18:44.885Z,25.00
2023-07-18T02:19:44.921Z,25.81
2023-07-18T02:20:44.984Z,26.32
2023-07-18T02:21:45.012Z,25.22
2023-07-18T02:22:45.100Z,25.65
2023-07-18T02:23:47.160Z,25.00
2023-07-18T02:24:45.049Z,25.00
2023-07-18T02:25:45.029Z,25.00
2023-07-18T02:26:45.011Z,24.84
2023-07-18T02:27:45.006Z,25.33
2023-07-18T02:28:45.035Z,25.00
2023-07-18T02:29:45.002Z,26.46
2023-07-18T02:30:45.040Z,26.20
2023-07-18T02:31:44.975Z,26.71
2023-07-18T02:32:45.091Z,25.11
2023-07-18T02:33:44.976Z,26.16
2023-07-18T02:34:44.955Z,27.97
2023-07-18T02:35:44.946Z,30.95
2023-07-18T02:36:44.932Z,32.73
2023-07-18T02:37:44.944Z,31.20
2023-07-18T02:38:44.935Z,29.51
2023-07-18T02:39:44.913Z,28.36
2023-07-18T02:40:44.945Z,28.75
2023-07-18T02:41:44.909Z,30.30
2023-07-18T02:42:44.894Z,25.74
2023-07-18T02:43:44.893Z,28.67
2023-07-18T02:44:44.918Z,28.25
2023-07-18T02:45:44.880Z,27.20
2023-07-18T02:46:44.922Z,26.94
2023-07-18T02:47:44.938Z,27.00
2023-07-18T02:48:44.853Z,29.40
2023-07-18T02:49:44.855Z,27.39
2023-07-18T02:50:44.860Z,26.76
2023-07-18T02:51:44.861Z,26.06
2023-07-18T02:52:44.819Z,26.28
2023-07-18T02:53:44.824Z,26.61
2023-07-18T02:54:44.817Z,29.18
2023-07-18T02:55:44.835Z,25.69
2023-07-18T02:56:44.820Z,26.98
2023-07-18T02:57:44.791Z,25.80
2023-07-18T02:58:44.790Z,26.76
2023-07-18T02:59:44.777Z,26.12
2023-07-18T03:00:44.780Z,26.68
2023-07-18T03:01:44.821Z,25.51
2023-07-18T03:02:44.836Z,25.53
2023-07-18T03:03:44.772Z,28.30
2023-07-18T03:04:44.756Z,29.73
2023-07-18T03:05:44.748Z,31.45
2023-07-18T03:06:44.720Z,30.36
2023-07-18T03:07:44.730Z,33.86
2023-07-18T03:08:44.720Z,36.85
2023-07-18T03:09:44.741Z,36.99
2023-07-18T03:10:44.738Z,37.37
2023-07-18T03:11:44.705Z,39.81
2023-07-18T03:12:44.712Z,43.87
2023-07-18T03:13:44.758Z,49.06
2023-07-18T03:14:44.697Z,51.31
2023-07-18T03:15:44.668Z,50.12
2023-07-18T03:16:44.701Z,47.81
2023-07-18T03:17:44.723Z,47.94
2023-07-18T03:18:44.680Z,48.84
2023-07-18T03:19:44.665Z,49.43
2023-07-18T03:20:44.671Z,50.58
2023-07-18T03:21:44.791Z,56.55
2023-07-18T03:22:44.802Z,59.69
2023-07-18T03:23:44.796Z,60.08
2023-07-18T03:24:44.842Z,63.74
2023-07-18T03:25:44.890Z,64.95
2023-07-18T03:26:44.930Z,69.40
2023-07-18T03:27:44.957Z,71.77
2023-07-18T03:28:44.989Z,73.34
2023-07-18T03:29:45.140Z,75.99
2023-07-18T03:30:45.083Z,78.04
2023-07-18T03:31:45.144Z,81.42
2023-07-18T03:32:45.185Z,83.93
2023-07-18T03:33:45.235Z,85.48
2023-07-18T03:34:45.253Z,87.91
2023-07-18T03:35:45.297Z,87.22
2023-07-18T03:36:45.318Z,87.40
2023-07-18T03:37:45.344Z,90.03
2023-07-18T03:38:45.396Z,89.98
2023-07-18T03:39:45.432Z,90.05
2023-07-18T03:40:45.479Z,88.92
2023-07-18T03:41:45.537Z,90.34
2023-07-18T03:42:45.548Z,89.22
2023-07-18T03:43:45.613Z,90.90
2023-07-18T03:44:45.651Z,89.68
2023-07-18T03:45:45.708Z,87.40
2023-07-18T03:46:45.775Z,87.79
2023-07-18T03:47:45.805Z,89.31
2023-07-18T03:48:45.841Z,87.36
2023-07-18T03:49:45.860Z,84.60
2023-07-18T03:50:45.894Z,83.86
2023-07-18T03:51:45.917Z,84.29
2023-07-18T03:52:46.021Z,81.16
2023-07-18T03:53:46.009Z,79.65
2023-07-18T03:54:46.054Z,78.56
2023-07-18T03:55:46.099Z,78.53
2023-07-18T03:56:46.143Z,77.71
2023-07-18T03:57:46.179Z,77.96
2023-07-18T03:58:46.218Z,76.20
2023-07-18T03:59:46.262Z,73.63
2023-07-18T04:00:46.296Z,72.56
2023-07-18T04:01:46.341Z,70.17
2023-07-18T04:02:47.217Z,70.65
2023-07-18T04:03:46.470Z,68.53
2023-07-18T04:04:46.454Z,70.08
2023-07-18T04:05:46.505Z,67.50
2023-07-18T04:06:46.535Z,69.53
2023-07-18T04:07:46.610Z,68.46
2023-07-18T04:08:46.649Z,67.90
2023-07-18T04:09:46.687Z,69.35
2023-07-18T04:10:46.749Z,66.35
2023-07-18T04:11:46.812Z,68.06
2023-07-18T04:12:46.825Z,67.22
2023-07-18T04:13:46.906Z,65.49
2023-07-18T04:14:46.926Z,66.83
2023-07-18T04:15:47.002Z,66.30
2023-07-18T04:16:47.033Z,63.83
2023-07-18T04:17:47.064Z,67.44
2023-07-18T04:18:47.077Z,68.21
2023-07-18T04:19:47.131Z,67.04
2023-07-18T04:20:47.177Z,68.50
2023-07-18T04:21:47.262Z,68.64
2023-07-18T04:22:47.330Z,65.78
2023-07-18T04:23:47.319Z,66.74
2023-07-18T04:24:47.373Z,67.49
2023-07-18T04:25:47.426Z,70.34
2023-07-18T04:26:47.455Z,70.01
2023-07-18T04:27:47.531Z,69.77
2023-07-18T04:28:47.558Z,70.96
2023-07-18T04:29:47.606Z,71.63
2023-07-18T04:30:47.649Z,73.77
2023-07-18T04:31:47.704Z,74.02
2023-07-18T04:32:47.755Z,73.36
2023-07-18T04:33:47.778Z,74.69
2023-07-18T04:34:47.851Z,75.27
2023-07-18T04:35:47.899Z,75.29
2023-07-18T04:36:47.930Z,74.03
2023-07-18T04:37:47.980Z,72.44
2023-07-18T04:38:47.990Z,75.01
2023-07-18T04:39:48.023Z,75.00
2023-07-18T04:40:48.090Z,71.01
2023-07-18T04:41:55.136Z,72.72
2023-07-18T04:42:49.112Z,72.80
2023-07-18T04:43:48.104Z,73.12
2023-07-18T04:44:48.101Z,73.41
2023-07-18T04:45:48.174Z,75.00
2023-07-18T04:46:48.125Z,76.24
2023-07-18T04:47:48.087Z,77.83
2023-07-18T04:48:48.068Z,75.76
2023-07-18T04:49:48.051Z,75.19
2023-07-18T04:50:48.063Z,77.93
2023-07-18T04:51:48.095Z,77.85
2023-07-18T04:52:48.112Z,77.05
2023-07-18T04:53:48.150Z,78.42
2023-07-18T04:54:48.194Z,79.35
2023-07-18T04:55:48.250Z,80.43
2023-07-18T04:56:48.304Z,80.46
2023-07-18T04:57:48.305Z,79.33
2023-07-18T04:58:48.561Z,81.62
2023-07-18T04:59:48.529Z,79.18
2023-07-18T05:00:48.574Z,79.83
2023-07-18T05:01:48.506Z,82.29
2023-07-18T05:02:49.493Z,83.11
2023-07-18T05:03:57.451Z,82.21
2023-07-18T05:04:49.529Z,82.27
2023-07-18T05:05:48.543Z,82.47
2023-07-18T05:06:48.551Z,82.79
2023-07-18T05:07:48.562Z,83.50
2023-07-18T05:08:48.514Z,83.05
2023-07-18T05:09:49.432Z,83.27
2023-07-18T05:10:48.575Z,85.83
2023-07-18T05:11:48.566Z,86.64
2023-07-18T05:12:48.494Z,89.91
2023-07-18T05:13:49.411Z,89.82
2023-07-18T05:14:48.546Z,91.88
2023-07-18T05:15:48.514Z,92.42
2023-07-18T05:16:48.557Z,92.17
2023-07-18T05:17:48.583Z,92.16
2023-07-18T05:18:48.536Z,91.19
2023-07-18T05:19:48.510Z,94.02
2023-07-18T05:20:48.487Z,91.94
2023-07-18T05:21:48.580Z,91.92
2023-07-18T05:22:48.582Z,96.18
2023-07-18T05:23:48.423Z,93.38
2023-07-18T05:24:48.531Z,93.65
2023-07-18T05:25:48.560Z,97.32
2023-07-18T05:26:48.513Z,94.72
2023-07-18T05:27:48.496Z,98.46
2023-07-18T05:28:48.445Z,98.02
2023-07-18T05:29:48.514Z,100.53
2023-07-18T05:30:48.542Z,103.70
2023-07-18T05:31:48.578Z,105.63
2023-07-18T05:32:48.621Z,109.94
2023-07-18T05:33:48.510Z,109.56
2023-07-18T05:34:48.566Z,113.66
2023-07-18T05:35:48.586Z,111.74
2023-07-18T05:36:48.500Z,113.69
2023-07-18T05:37:48.530Z,115.29
2023-07-18T05:38:48.496Z,117.22
2023-07-18T05:39:48.612Z,117.40
2023-07-18T05:40:49.427Z,119.80
2023-07-18T05:41:49.416Z,122.38
2023-07-18T05:42:49.438Z,121.12
2023-07-18T05:43:48.586Z,126.03
2023-07-18T05:44:48.541Z,129.65
2023-07-18T05:45:48.945Z,132.82
2023-07-18T05:46:48.599Z,132.13
2023-07-18T05:47:48.645Z,135.76
2023-07-18T05:48:48.615Z,135.72
2023-07-18T05:49:48.648Z,136.23
2023-07-18T05:50:48.686Z,134.63
2023-07-18T05:51:48.681Z,135.99
2023-07-18T05:52:48.844Z,135.84
2023-07-18T05:53:48.944Z,134.16
2023-07-18T05:54:49.520Z,134.31
2023-07-18T05:55:48.911Z,136.53
2023-07-18T05:56:49.443Z,134.91
2023-07-18T05:57:48.951Z,136.22
2023-07-18T05:58:48.984Z,140.36
2023-07-18T05:59:49.015Z,138.86
2023-07-18T06:00:49.133Z,131.94
2023-07-18T06:01:49.123Z,133.80
2023-07-18T06:02:49.131Z,138.04
2023-07-18T06:03:49.174Z,147.04
2023-07-18T06:04:49.199Z,141.62
2023-07-18T06:05:49.261Z,142.39
2023-07-18T06:06:49.313Z,143.33
2023-07-18T06:07:49.347Z,147.64
2023-07-18T06:08:49.395Z,140.80
2023-07-18T06:09:49.434Z,144.93
2023-07-18T06:10:49.492Z,146.30
2023-07-18T06:11:49.574Z,150.68
2023-07-18T06:12:49.641Z,157.07
2023-07-18T06:13:49.614Z,171.17
2023-07-18T06:14:49.673Z,170.74
2023-07-18T06:15:49.741Z,176.33
2023-07-18T06:16:49.787Z,181.62
2023-07-18T06:17:49.847Z,183.75
2023-07-18T06:18:49.901Z,182.28
2023-07-18T06:19:49.942Z,185.61
2023-07-18T06:20:50.061Z,186.29
2023-07-18T06:21:50.076Z,185.37
2023-07-18T06:22:50.176Z,183.47
2023-07-18T06:23:50.205Z,185.41
2023-07-18T06:24:50.266Z,183.16
2023-07-18T06:25:50.299Z,177.47
2023-07-18T06:26:50.676Z,178.13
2023-07-18T06:27:50.429Z,172.22
2023-07-18T06:28:52.104Z,173.89
2023-07-18T06:29:50.488Z,174.50
2023-07-18T06:30:50.502Z,178.01
2023-07-18T06:31:50.552Z,176.68
2023-07-18T06:32:50.466Z,175.85
2023-07-18T06:33:50.443Z,174.98
2023-07-18T06:34:50.439Z,173.08
2023-07-18T06:35:50.437Z,170.53
2023-07-18T06:36:50.450Z,170.41
2023-07-18T06:37:50.449Z,170.25
2023-07-18T06:38:50.426Z,166.12
2023-07-18T06:39:50.433Z,168.43
2023-07-18T06:40:50.418Z,169.34
2023-07-18T06:41:50.383Z,168.31
2023-07-18T06:42:50.406Z,163.70
2023-07-18T06:43:50.394Z,166.41
2023-07-18T06:44:50.393Z,166.26
2023-07-18T06:45:50.360Z,167.22
2023-07-18T06:46:50.426Z,168.91
2023-07-18T06:47:50.400Z,165.17
2023-07-18T06:48:50.361Z,165.24
2023-07-18T06:49:50.327Z,165.38
2023-07-18T06:50:50.350Z,167.10
2023-07-18T06:51:50.320Z,164.53
2023-07-18T06:52:50.330Z,166.18
2023-07-18T06:53:50.365Z,164.72
2023-07-18T06:54:50.302Z,164.32
2023-07-18T06:55:50.306Z,162.77
2023-07-18T06:56:50.323Z,163.14
2023-07-18T06:57:50.296Z,164.97
2023-07-18T06:58:50.303Z,165.37
2023-07-18T06:59:50.277Z,163.37
2023-07-18T07:00:50.348Z,165.60
2023-07-18T07:01:50.262Z,168.61
2023-07-18T07:02:50.354Z,169.23
2023-07-18T07:03:50.360Z,166.71
2023-07-18T07:04:50.252Z,164.19
2023-07-18T07:05:50.233Z,163.49
2023-07-18T07:06:50.227Z,162.07
2023-07-18T07:07:50.259Z,159.68
2023-07-18T07:08:50.275Z,162.12
2023-07-18T07:09:50.223Z,158.44
2023-07-18T07:10:50.205Z,158.81
2023-07-18T07:11:50.183Z,156.78
2023-07-18T07:12:50.175Z,154.09
2023-07-18T07:13:50.200Z,155.92
2023-07-18T07:14:50.181Z,152.78
2023-07-18T07:15:50.181Z,153.87
2023-07-18T07:16:50.248Z,153.82
2023-07-18T07:17:50.201Z,154.69
2023-07-18T07:18:50.165Z,151.49
2023-07-18T07:19:50.178Z,147.34
2023-07-18T07:20:50.145Z,148.15
2023-07-18T07:21:50.112Z,148.96
2023-07-18T07:22:50.193Z,147.76
2023-07-18T07:23:50.242Z,144.75
2023-07-18T07:24:50.268Z,144.15
2023-07-18T07:25:50.355Z,144.86
2023-07-18T07:26:50.391Z,143.00
2023-07-18T07:27:50.440Z,141.87
2023-07-18T07:28:50.472Z,141.31
2023-07-18T07:29:50.522Z,139.07
2023-07-18T07:30:50.575Z,140.15
2023-07-18T07:31:50.662Z,140.23
2023-07-18T07:32:50.809Z,138.87
2023-07-18T07:33:50.905Z,137.89
2023-07-18T07:34:51.012Z,134.87
2023-07-18T07:35:51.172Z,137.20
2023-07-18T07:36:51.297Z,133.82
2023-07-18T07:37:51.438Z,134.59
2023-07-18T07:38:51.543Z,132.52
2023-07-18T07:39:51.718Z,133.49
2023-07-18T07:40:51.816Z,132.17
2023-07-18T07:41:51.932Z,129.95
2023-07-18T07:42:52.009Z,127.23
2023-07-18T07:43:52.241Z,126.59
2023-07-18T07:44:52.310Z,125.45
2023-07-18T07:45:52.417Z,124.89
2023-07-18T07:46:52.605Z,125.76
2023-07-18T07:47:52.640Z,124.44
2023-07-18T07:48:52.740Z,123.64
2023-07-18T07:49:52.846Z,122.18
2023-07-18T07:50:52.954Z,121.62
2023-07-18T07:51:53.037Z,120.36
2023-07-18T07:52:53.115Z,120.38
2023-07-18T07:53:53.250Z,119.63
2023-07-18T07:54:53.275Z,120.16
2023-07-18T07:55:53.304Z,123.86
2023-07-18T07:56:53.342Z,125.33
2023-07-18T07:57:53.378Z,127.88
2023-07-18T07:59:09.275Z,128.36
2023-07-18T07:59:54.416Z,128.54
2023-07-18T08:00:53.413Z,128.85
2023-07-18T08:01:54.007Z,130.08
2023-07-18T08:02:53.443Z,131.35
2023-07-18T08:03:53.389Z,132.29
2023-07-18T08:04:53.469Z,134.08
2023-07-18T08:05:53.378Z,136.28
2023-07-18T08:06:53.361Z,137.08
2023-07-18T08:07:53.384Z,138.28
2023-07-18T08:08:53.354Z,137.91
2023-07-18T08:09:53.368Z,139.02
2023-07-18T08:10:53.369Z,140.98
2023-07-18T08:11:53.408Z,137.93
2023-07-18T08:12:53.431Z,135.84
2023-07-18T08:13:53.487Z,137.82
2023-07-18T08:14:53.514Z,137.62
2023-07-18T08:15:53.618Z,137.88
2023-07-18T08:16:53.612Z,138.50
2023-07-18T08:17:53.662Z,139.02
2023-07-18T08:18:53.724Z,140.31
2023-07-18T08:19:53.716Z,141.30
2023-07-18T08:20:53.757Z,140.18
2023-07-18T08:21:53.779Z,135.14
2023-07-18T08:22:53.813Z,137.73
2023-07-18T08:23:53.888Z,138.32
2023-07-18T08:24:53.904Z,136.21
2023-07-18T08:25:53.906Z,134.95
2023-07-18T08:26:53.930Z,137.44
2023-07-18T08:27:53.970Z,135.67
2023-07-18T08:28:54.021Z,136.73
2023-07-18T08:29:54.048Z,136.85
2023-07-18T08:30:54.069Z,137.16
2023-07-18T08:31:54.141Z,136.32
2023-07-18T08:32:54.230Z,139.17
2023-07-18T08:33:54.145Z,136.01
2023-07-18T08:34:54.193Z,138.35
2023-07-18T08:35:54.224Z,136.30
2023-07-18T08:36:54.231Z,134.80
2023-07-18T08:37:54.249Z,135.60
2023-07-18T08:38:54.282Z,140.57
2023-07-18T08:39:54.289Z,138.18
2023-07-18T08:40:54.307Z,141.09
2023-07-18T08:41:54.324Z,139.64
2023-07-18T08:42:54.359Z,145.60
2023-07-18T08:43:54.373Z,146.55
2023-07-18T08:44:54.407Z,150.35
2023-07-18T08:45:54.444Z,152.12
2023-07-18T08:46:54.420Z,155.44
2023-07-18T08:47:54.475Z,155.08
2023-07-18T08:48:54.445Z,156.09
2023-07-18T08:49:54.470Z,156.08
2023-07-18T08:50:54.493Z,161.37
2023-07-18T08:51:54.489Z,162.58
2023-07-18T08:52:54.536Z,163.59
2023-07-18T08:53:54.548Z,165.45
2023-07-18T08:54:54.572Z,165.87
2023-07-18T08:55:54.633Z,165.27
2023-07-18T08:56:54.584Z,164.22
2023-07-18T08:57:54.559Z,166.82
2023-07-18T08:58:54.572Z,162.98
2023-07-18T08:59:54.591Z,165.06
2023-07-18T09:00:54.607Z,169.49
2023-07-18T09:01:54.656Z,168.63
2023-07-18T09:02:54.694Z,168.24
2023-07-18T09:03:54.658Z,170.60
2023-07-18T09:04:54.613Z,170.58
2023-07-18T09:05:54.606Z,173.70
2023-07-18T09:06:54.632Z,172.23
2023-07-18T09:07:54.620Z,171.54
2023-07-18T09:08:54.634Z,171.65
2023-07-18T09:09:54.624Z,172.38
2023-07-18T09:10:54.623Z,173.27
2023-07-18T09:11:54.641Z,170.14
2023-07-18T09:12:54.633Z,166.95
2023-07-18T09:13:54.666Z,168.78
2023-07-18T09:14:54.638Z,170.62
2023-07-18T09:15:54.651Z,169.43
2023-07-18T09:16:54.674Z,166.08
2023-07-18T09:17:54.709Z,167.89
2023-07-18T09:18:54.645Z,164.24
2023-07-18T09:19:54.633Z,169.22
2023-07-18T09:20:54.808Z,168.02
2023-07-18T09:21:54.667Z,166.73
2023-07-18T09:22:54.648Z,160.80
2023-07-18T09:23:54.645Z,160.22
2023-07-18T09:24:54.675Z,160.84
2023-07-18T09:25:54.674Z,162.42
2023-07-18T09:26:54.696Z,163.05
2023-07-18T09:27:54.745Z,159.50
2023-07-18T09:28:54.728Z,164.40
2023-07-18T09:29:54.741Z,159.42
2023-07-18T09:30:54.742Z,156.00
2023-07-18T09:31:54.748Z,157.49
2023-07-18T09:32:54.770Z,159.92
2023-07-18T09:33:54.885Z,161.99
2023-07-18T09:34:54.815Z,163.65
2023-07-18T09:35:54.823Z,162.23
2023-07-18T09:36:54.857Z,158.06
2023-07-18T09:37:54.846Z,158.63
2023-07-18T09:38:54.905Z,159.63
2023-07-18T09:39:54.931Z,155.80
2023-07-18T09:40:54.988Z,161.44
2023-07-18T09:41:55.018Z,156.91
2023-07-18T09:42:55.934Z,162.37
2023-07-18T09:44:09.591Z,167.70
2023-07-18T09:44:56.268Z,167.24
2023-07-18T09:45:55.089Z,166.89
2023-07-18T09:46:55.038Z,169.08
2023-07-18T09:47:55.075Z,170.44
2023-07-18T09:48:55.052Z,172.27
2023-07-18T09:49:55.032Z,177.25
2023-07-18T09:50:55.011Z,179.92
2023-07-18T09:51:55.009Z,178.86
2023-07-18T09:52:55.025Z,174.19
2023-07-18T09:53:55.124Z,175.87
2023-07-18T09:54:55.103Z,176.07
2023-07-18T09:55:55.134Z,175.79
2023-07-18T09:56:55.187Z,173.18
2023-07-18T09:57:55.214Z,175.90
2023-07-18T09:58:55.321Z,174.73
2023-07-18T09:59:55.356Z,176.53
2023-07-18T10:00:55.451Z,176.84
2023-07-18T10:01:55.569Z,179.55
2023-07-18T10:02:55.659Z,181.14
2023-07-18T10:03:55.724Z,178.21
2023-07-18T10:04:55.624Z,177.08
2023-07-18T10:05:55.699Z,178.99
2023-07-18T10:06:55.754Z,177.27
2023-07-18T10:07:55.821Z,177.99
2023-07-18T10:08:55.880Z,177.66
2023-07-18T10:09:55.914Z,175.01
2023-07-18T10:10:56.001Z,178.76
2023-07-18T10:11:56.010Z,180.45
2023-07-18T10:12:56.059Z,175.95
2023-07-18T10:13:56.117Z,178.20
2023-07-18T10:14:56.160Z,177.47
2023-07-18T10:15:56.234Z,178.95
2023-07-18T10:16:56.342Z,179.47
2023-07-18T10:17:56.412Z,175.75
2023-07-18T10:18:56.346Z,172.44
2023-07-18T10:19:56.436Z,175.56
2023-07-18T10:20:56.468Z,175.57
2023-07-18T10:21:56.641Z,170.23
2023-07-18T10:22:56.623Z,172.59
2023-07-18T10:23:56.627Z,174.34
2023-07-18T10:24:56.761Z,169.85
2023-07-18T10:25:56.720Z,167.60
2023-07-18T10:26:56.785Z,165.52
2023-07-18T10:27:56.799Z,171.44
2023-07-18T10:28:56.865Z,169.28
2023-07-18T10:29:56.913Z,166.75
2023-07-18T10:30:57.014Z,165.53
2023-07-18T10:31:57.062Z,167.38
2023-07-18T10:32:57.146Z,163.16
2023-07-18T10:33:57.119Z,162.55
2023-07-18T10:34:57.185Z,159.74
2023-07-18T10:35:57.258Z,159.45
2023-07-18T10:36:57.342Z,161.29
2023-07-18T10:37:57.321Z,162.80
2023-07-18T10:38:57.381Z,158.24
2023-07-18T10:39:57.438Z,159.03
2023-07-18T10:40:57.480Z,156.76
2023-07-18T10:41:57.566Z,154.70
2023-07-18T10:42:57.567Z,156.56
2023-07-18T10:43:57.592Z,151.95
2023-07-18T10:44:57.648Z,152.81
2023-07-18T10:45:57.703Z,149.99
2023-07-18T10:46:57.897Z,152.70
2023-07-18T10:47:57.797Z,153.10
2023-07-18T10:48:57.831Z,148.34
2023-07-18T10:49:57.896Z,155.28
2023-07-18T10:50:57.960Z,152.91
2023-07-18T10:51:58.046Z,152.32
2023-07-18T10:52:58.041Z,154.63
2023-07-18T10:53:58.114Z,147.48
2023-07-18T10:54:58.175Z,147.27
2023-07-18T10:55:58.239Z,152.64
2023-07-18T10:56:58.348Z,154.01
2023-07-18T10:57:58.319Z,150.94
2023-07-18T10:58:58.410Z,155.58
2023-07-18T10:59:58.459Z,150.73
2023-07-18T11:00:58.537Z,150.55
2023-07-18T11:01:58.566Z,150.64
2023-07-18T11:02:58.615Z,147.32
2023-07-18T11:03:58.632Z,147.01
2023-07-18T11:04:58.710Z,147.10
2023-07-18T11:05:58.780Z,153.75
2023-07-18T11:06:58.789Z,149.60
2023-07-18T11:07:58.841Z,146.96
2023-07-18T11:08:58.884Z,147.46
2023-07-18T11:09:58.931Z,145.39
2023-07-18T11:10:58.965Z,142.31
2023-07-18T11:11:59.081Z,147.78
2023-07-18T11:12:59.102Z,150.75
2023-07-18T11:13:59.137Z,148.32
2023-07-18T11:15:00.821Z,147.39
2023-07-18T11:15:59.288Z,143.17
2023-07-18T11:16:59.500Z,141.18
2023-07-18T11:17:59.431Z,136.83
2023-07-18T11:18:59.424Z,137.48
2023-07-18T11:19:59.477Z,141.00
2023-07-18T11:21:01.769Z,138.64
2023-07-18T11:21:59.526Z,138.03
2023-07-18T11:22:59.557Z,140.71
2023-07-18T11:23:59.521Z,134.82
2023-07-18T11:24:59.515Z,138.12
2023-07-18T11:25:59.483Z,135.20
2023-07-18T11:26:59.500Z,133.99
2023-07-18T11:27:59.480Z,137.59
2023-07-18T11:28:59.471Z,137.68
2023-07-18T11:29:59.453Z,135.32
2023-07-18T11:30:59.573Z,136.81
2023-07-18T11:31:59.486Z,135.07
2023-07-18T11:32:59.517Z,133.84
2023-07-18T11:33:59.454Z,136.98
2023-07-18T11:34:59.453Z,138.28
2023-07-18T11:35:59.452Z,137.81
2023-07-18T11:36:59.459Z,135.19
2023-07-18T11:37:59.429Z,127.38
2023-07-18T11:38:59.425Z,135.89
2023-07-18T11:39:59.393Z,134.71
2023-07-18T11:40:59.385Z,129.62
2023-07-18T11:41:59.378Z,134.57
2023-07-18T11:42:59.434Z,132.44
2023-07-18T11:43:59.385Z,129.81
2023-07-18T11:44:59.368Z,127.28
2023-07-18T11:45:59.373Z,128.89
2023-07-18T11:46:59.351Z,132.19
2023-07-18T11:47:59.435Z,128.73
2023-07-18T11:48:59.519Z,123.82
2023-07-18T11:49:59.340Z,132.11
2023-07-18T11:50:59.346Z,131.91
2023-07-18T11:51:59.332Z,131.64
2023-07-18T11:52:59.363Z,136.37
2023-07-18T11:53:59.318Z,135.02
2023-07-18T11:54:59.301Z,135.69
2023-07-18T11:55:59.303Z,135.54
2023-07-18T11:56:59.339Z,133.12
2023-07-18T11:57:59.323Z,132.57
2023-07-18T11:58:59.295Z,131.20
2023-07-18T11:59:59.254Z,131.63
2023-07-18T12:00:59.280Z,133.79
2023-07-18T12:01:59.346Z,133.98
2023-07-18T12:02:59.389Z,129.83
2023-07-18T12:03:59.453Z,129.24
2023-07-18T12:04:59.255Z,129.92
2023-07-18T12:05:59.224Z,127.50
2023-07-18T12:06:59.239Z,125.87
2023-07-18T12:07:59.223Z,124.78
2023-07-18T12:08:59.220Z,121.38
2023-07-18T12:09:59.207Z,122.68
2023-07-18T12:11:08.905Z,128.89
2023-07-18T12:12:00.209Z,124.23
2023-07-18T12:12:59.206Z,117.24
2023-07-18T12:13:59.174Z,119.10
2023-07-18T12:14:59.179Z,116.95
2023-07-18T12:15:59.181Z,118.45
2023-07-18T12:16:59.241Z,115.74
2023-07-18T12:17:59.236Z,114.34
2023-07-18T12:18:59.151Z,116.73
2023-07-18T12:19:59.190Z,116.85
2023-07-18T12:20:59.178Z,112.91
2023-07-18T12:21:59.177Z,112.58
2023-07-18T12:22:59.174Z,118.22
2023-07-18T12:23:59.130Z,122.62
2023-07-18T12:24:59.138Z,122.54
2023-07-18T12:25:59.140Z,124.57
2023-07-18T12:26:59.126Z,125.56
2023-07-18T12:27:59.126Z,128.28
2023-07-18T12:28:59.100Z,121.56
2023-07-18T12:29:59.113Z,127.30
2023-07-18T12:30:59.139Z,127.31
2023-07-18T12:31:59.221Z,123.73
2023-07-18T12:32:59.090Z,120.77
2023-07-18T12:33:59.066Z,125.64
2023-07-18T12:34:59.070Z,129.67
2023-07-18T12:35:59.070Z,123.44
2023-07-18T12:36:59.068Z,123.63
2023-07-18T12:37:59.058Z,125.48
2023-07-18T12:38:59.060Z,122.08